Campbellton, Missouri
Current Conditions -  °F | °C
As of 8:15 PM on Friday 28 Nov 2014 (Local Time) from KFYG Reporting Station
Clear Clear  
Wind Chill: 39°   Ceiling: Unl
Heat Index: 45°   Visibility: 10mi
Dew Point: 32°   Wind: 10mph
Humidity: 61%   Direction: 140°SE
Pressure: 29.89"   Gusts: NA
Location:  38.5374°N, 91.0388°W
Report Text: KFYG 290215Z AUTO 14009KT 10SM CLR 07/00 A2989 RMK AO2
Loading
Personal Weather Stations






























Interactive Weather Map New forecast layout! Learn more

10-Day Weather Forecast

Advertisements
Track Severe Weather on mobile